sensor_id;sensor_type;location;lat;lon;timestamp;P1;durP1;ratioP1;P2;durP2;ratioP2
18612;SDS011;9436;52.152;21.032;2022-07-10T00:00:29;2.33;;;2.13;;
18612;SDS011;9436;52.152;21.032;2022-07-10T00:02:57;2.23;;;2.00;;
18612;SDS011;9436;52.152;21.032;2022-07-10T00:05:26;3.07;;;1.80;;
18612;SDS011;9436;52.152;21.032;2022-07-10T00:07:53;2.07;;;1.80;;
18612;SDS011;9436;52.152;21.032;2022-07-10T00:10:21;2.23;;;1.80;;
18612;SDS011;9436;52.152;21.032;2022-07-10T00:12:50;2.90;;;1.77;;
18612;SDS011;9436;52.152;21.032;2022-07-10T00:15:18;2.20;;;1.93;;
18612;SDS011;9436;52.152;21.032;2022-07-10T00:17:45;1.87;;;1.77;;
18612;SDS011;9436;52.152;21.032;2022-07-10T00:20:13;2.73;;;2.03;;
18612;SDS011;9436;52.152;21.032;2022-07-10T00:22:42;2.07;;;1.90;;
18612;SDS011;9436;52.152;21.032;2022-07-10T00:25:09;1.90;;;1.63;;
18612;SDS011;9436;52.152;21.032;2022-07-10T00:27:37;2.20;;;2.00;;
18612;SDS011;9436;52.152;21.032;2022-07-10T00:30:04;3.03;;;1.83;;
18612;SDS011;9436;52.152;21.032;2022-07-10T00:32:32;2.17;;;1.97;;
18612;SDS011;9436;52.152;21.032;2022-07-10T00:34:59;1.93;;;1.67;;
18612;SDS011;9436;52.152;21.032;2022-07-10T00:37:27;2.27;;;2.07;;
18612;SDS011;9436;52.152;21.032;2022-07-10T00:39:55;2.80;;;2.27;;
18612;SDS011;9436;52.152;21.032;2022-07-10T00:42:22;1.93;;;1.73;;
18612;SDS011;9436;52.152;21.032;2022-07-10T00:44:49;2.20;;;2.00;;
18612;SDS011;9436;52.152;21.032;2022-07-10T00:47:16;2.27;;;2.07;;
18612;SDS011;9436;52.152;21.032;2022-07-10T00:49:45;2.27;;;1.97;;
18612;SDS011;9436;52.152;21.032;2022-07-10T00:52:13;2.03;;;1.83;;
18612;SDS011;9436;52.152;21.032;2022-07-10T00:54:42;2.17;;;1.97;;
18612;SDS011;9436;52.152;21.032;2022-07-10T00:57:13;2.27;;;2.07;;
18612;SDS011;9436;52.152;21.032;2022-07-10T00:59:41;3.30;;;2.30;;
18612;SDS011;9436;52.152;21.032;2022-07-10T01:02:09;2.30;;;2.10;;
18612;SDS011;9436;52.152;21.032;2022-07-10T01:04:36;2.67;;;2.40;;
18612;SDS011;9436;52.152;21.032;2022-07-10T01:07:04;2.40;;;2.20;;
18612;SDS011;9436;52.152;21.032;2022-07-10T01:09:31;3.00;;;2.23;;
18612;SDS011;9436;52.152;21.032;2022-07-10T01:11:59;3.03;;;2.20;;
18612;SDS011;9436;52.152;21.032;2022-07-10T01:14:29;2.67;;;2.47;;
18612;SDS011;9436;52.152;21.032;2022-07-10T01:16:56;2.50;;;2.30;;
18612;SDS011;9436;52.152;21.032;2022-07-10T01:19:24;2.13;;;2.03;;
18612;SDS011;9436;52.152;21.032;2022-07-10T01:21:52;2.57;;;2.33;;
18612;SDS011;9436;52.152;21.032;2022-07-10T01:24:19;2.93;;;1.97;;
18612;SDS011;9436;52.152;21.032;2022-07-10T01:26:47;3.27;;;2.80;;
18612;SDS011;9436;52.152;21.032;2022-07-10T01:29:14;2.93;;;2.43;;
18612;SDS011;9436;52.152;21.032;2022-07-10T01:31:41;2.40;;;2.20;;
18612;SDS011;9436;52.152;21.032;2022-07-10T01:34:08;2.30;;;2.10;;
18612;SDS011;9436;52.152;21.032;2022-07-10T01:36:36;2.47;;;2.27;;
18612;SDS011;9436;52.152;21.032;2022-07-10T01:39:05;3.43;;;2.60;;
18612;SDS011;9436;52.152;21.032;2022-07-10T01:41:32;3.00;;;2.70;;
18612;SDS011;9436;52.152;21.032;2022-07-10T01:43:59;3.20;;;2.17;;
18612;SDS011;9436;52.152;21.032;2022-07-10T01:46:27;3.90;;;2.20;;
18612;SDS011;9436;52.152;21.032;2022-07-10T01:48:54;4.23;;;2.70;;
18612;SDS011;9436;52.152;21.032;2022-07-10T01:51:21;2.57;;;2.30;;
18612;SDS011;9436;52.152;21.032;2022-07-10T01:53:48;3.03;;;2.40;;
18612;SDS011;9436;52.152;21.032;2022-07-10T01:56:16;2.50;;;2.30;;
18612;SDS011;9436;52.152;21.032;2022-07-10T01:58:43;3.07;;;2.80;;
18612;SDS011;9436;52.152;21.032;2022-07-10T02:01:11;3.53;;;2.37;;
18612;SDS011;9436;52.152;21.032;2022-07-10T02:03:38;4.37;;;2.53;;
18612;SDS011;9436;52.152;21.032;2022-07-10T02:06:22;2.87;;;2.53;;
18612;SDS011;9436;52.152;21.032;2022-07-10T02:08:49;2.50;;;2.23;;
18612;SDS011;9436;52.152;21.032;2022-07-10T02:11:18;2.50;;;2.30;;
18612;SDS011;9436;52.152;21.032;2022-07-10T02:13:45;2.83;;;2.50;;
18612;SDS011;9436;52.152;21.032;2022-07-10T02:16:12;3.07;;;2.40;;
18612;SDS011;9436;52.152;21.032;2022-07-10T02:18:39;2.80;;;2.60;;
18612;SDS011;9436;52.152;21.032;2022-07-10T02:21:06;2.53;;;2.33;;
18612;SDS011;9436;52.152;21.032;2022-07-10T02:23:33;3.50;;;2.60;;
18612;SDS011;9436;52.152;21.032;2022-07-10T02:26:01;4.00;;;2.37;;
18612;SDS011;9436;52.152;21.032;2022-07-10T02:28:29;4.83;;;2.83;;
18612;SDS011;9436;52.152;21.032;2022-07-10T02:30:57;3.03;;;2.67;;
18612;SDS011;9436;52.152;21.032;2022-07-10T02:33:24;2.80;;;2.60;;
18612;SDS011;9436;52.152;21.032;2022-07-10T02:35:51;2.70;;;2.50;;
18612;SDS011;9436;52.152;21.032;2022-07-10T02:38:18;3.00;;;2.70;;
18612;SDS011;9436;52.152;21.032;2022-07-10T02:40:45;3.17;;;2.67;;
18612;SDS011;9436;52.152;21.032;2022-07-10T02:43:12;3.50;;;2.60;;
18612;SDS011;9436;52.152;21.032;2022-07-10T02:45:41;3.10;;;2.80;;
18612;SDS011;9436;52.152;21.032;2022-07-10T02:48:08;4.60;;;2.50;;
18612;SDS011;9436;52.152;21.032;2022-07-10T02:50:35;3.00;;;2.70;;
18612;SDS011;9436;52.152;21.032;2022-07-10T02:53:02;2.60;;;2.37;;
18612;SDS011;9436;52.152;21.032;2022-07-10T02:55:29;3.17;;;2.63;;
18612;SDS011;9436;52.152;21.032;2022-07-10T02:57:57;2.90;;;2.67;;
18612;SDS011;9436;52.152;21.032;2022-07-10T03:00:25;2.93;;;2.60;;
18612;SDS011;9436;52.152;21.032;2022-07-10T03:02:54;2.80;;;2.60;;
18612;SDS011;9436;52.152;21.032;2022-07-10T03:05:21;3.67;;;2.80;;
18612;SDS011;9436;52.152;21.032;2022-07-10T03:07:48;3.70;;;2.87;;
18612;SDS011;9436;52.152;21.032;2022-07-10T03:10:15;2.90;;;2.60;;
18612;SDS011;9436;52.152;21.032;2022-07-10T03:12:42;3.20;;;2.90;;
18612;SDS011;9436;52.152;21.032;2022-07-10T03:15:09;3.00;;;2.70;;
18612;SDS011;9436;52.152;21.032;2022-07-10T03:17:37;3.80;;;3.10;;
18612;SDS011;9436;52.152;21.032;2022-07-10T03:20:07;3.10;;;2.80;;
18612;SDS011;9436;52.152;21.032;2022-07-10T03:22:34;3.47;;;2.73;;
18612;SDS011;9436;52.152;21.032;2022-07-10T03:25:02;3.13;;;2.70;;
18612;SDS011;9436;52.152;21.032;2022-07-10T03:27:29;3.27;;;2.97;;
18612;SDS011;9436;52.152;21.032;2022-07-10T03:29:56;3.03;;;2.73;;
18612;SDS011;9436;52.152;21.032;2022-07-10T03:32:23;3.17;;;2.90;;
18612;SDS011;9436;52.152;21.032;2022-07-10T03:34:50;4.27;;;3.00;;
18612;SDS011;9436;52.152;21.032;2022-07-10T03:37:18;2.97;;;2.67;;
18612;SDS011;9436;52.152;21.032;2022-07-10T03:39:46;4.00;;;2.67;;
18612;SDS011;9436;52.152;21.032;2022-07-10T03:42:12;4.87;;;2.70;;
18612;SDS011;9436;52.152;21.032;2022-07-10T03:44:39;3.77;;;3.13;;
18612;SDS011;9436;52.152;21.032;2022-07-10T03:47:06;4.80;;;3.10;;
18612;SDS011;9436;52.152;21.032;2022-07-10T03:49:33;3.53;;;2.70;;
18612;SDS011;9436;52.152;21.032;2022-07-10T03:52:00;4.53;;;3.13;;
18612;SDS011;9436;52.152;21.032;2022-07-10T03:54:30;3.40;;;3.10;;
18612;SDS011;9436;52.152;21.032;2022-07-10T03:56:57;5.20;;;3.13;;
18612;SDS011;9436;52.152;21.032;2022-07-10T03:59:41;3.53;;;3.03;;
18612;SDS011;9436;52.152;21.032;2022-07-10T04:02:08;5.13;;;3.40;;
18612;SDS011;9436;52.152;21.032;2022-07-10T04:04:35;5.17;;;3.23;;
18612;SDS011;9436;52.152;21.032;2022-07-10T04:07:03;3.67;;;3.13;;
18612;SDS011;9436;52.152;21.032;2022-07-10T04:09:32;3.50;;;3.20;;
18612;SDS011;9436;52.152;21.032;2022-07-10T04:11:59;3.73;;;3.33;;
18612;SDS011;9436;52.152;21.032;2022-07-10T04:14:26;4.30;;;3.40;;
18612;SDS011;9436;52.152;21.032;2022-07-10T04:16:53;5.50;;;3.70;;
18612;SDS011;9436;52.152;21.032;2022-07-10T04:19:20;3.33;;;3.10;;
18612;SDS011;9436;52.152;21.032;2022-07-10T04:21:47;4.97;;;3.70;;
18612;SDS011;9436;52.152;21.032;2022-07-10T04:24:14;4.97;;;3.43;;
18612;SDS011;9436;52.152;21.032;2022-07-10T04:26:43;4.93;;;3.40;;
18612;SDS011;9436;52.152;21.032;2022-07-10T04:29:10;4.77;;;3.67;;
18612;SDS011;9436;52.152;21.032;2022-07-10T04:31:37;3.57;;;3.30;;
18612;SDS011;9436;52.152;21.032;2022-07-10T04:34:04;3.57;;;3.27;;
18612;SDS011;9436;52.152;21.032;2022-07-10T04:36:31;3.60;;;3.20;;
18612;SDS011;9436;52.152;21.032;2022-07-10T04:38:58;4.20;;;3.67;;
18612;SDS011;9436;52.152;21.032;2022-07-10T04:41:25;3.97;;;3.30;;
18612;SDS011;9436;52.152;21.032;2022-07-10T04:43:54;5.27;;;3.67;;
18612;SDS011;9436;52.152;21.032;2022-07-10T04:46:21;3.83;;;3.20;;
18612;SDS011;9436;52.152;21.032;2022-07-10T04:48:48;3.97;;;3.57;;
18612;SDS011;9436;52.152;21.032;2022-07-10T04:51:15;4.53;;;3.07;;
18612;SDS011;9436;52.152;21.032;2022-07-10T04:53:42;4.27;;;3.13;;
18612;SDS011;9436;52.152;21.032;2022-07-10T04:56:09;5.33;;;2.97;;
18612;SDS011;9436;52.152;21.032;2022-07-10T04:58:36;4.03;;;2.80;;
18612;SDS011;9436;52.152;21.032;2022-07-10T05:01:05;5.83;;;2.80;;
18612;SDS011;9436;52.152;21.032;2022-07-10T05:03:32;4.00;;;2.60;;
18612;SDS011;9436;52.152;21.032;2022-07-10T05:05:59;3.30;;;2.60;;
18612;SDS011;9436;52.152;21.032;2022-07-10T05:08:26;3.40;;;2.43;;
18612;SDS011;9436;52.152;21.032;2022-07-10T05:10:53;4.27;;;2.43;;
18612;SDS011;9436;52.152;21.032;2022-07-10T05:13:20;3.67;;;2.70;;
18612;SDS011;9436;52.152;21.032;2022-07-10T05:15:47;2.90;;;2.30;;
18612;SDS011;9436;52.152;21.032;2022-07-10T05:18:16;4.40;;;2.37;;
18612;SDS011;9436;52.152;21.032;2022-07-10T05:20:43;2.77;;;2.20;;
18612;SDS011;9436;52.152;21.032;2022-07-10T05:23:13;2.60;;;2.37;;
18612;SDS011;9436;52.152;21.032;2022-07-10T05:25:40;2.97;;;1.93;;
18612;SDS011;9436;52.152;21.032;2022-07-10T05:28:07;2.97;;;2.20;;
18612;SDS011;9436;52.152;21.032;2022-07-10T05:30:34;4.10;;;2.00;;
18612;SDS011;9436;52.152;21.032;2022-07-10T05:33:01;3.27;;;2.00;;
18612;SDS011;9436;52.152;21.032;2022-07-10T05:35:30;2.80;;;1.83;;
18612;SDS011;9436;52.152;21.032;2022-07-10T05:37:57;2.67;;;2.00;;
18612;SDS011;9436;52.152;21.032;2022-07-10T05:40:24;2.77;;;1.90;;
18612;SDS011;9436;52.152;21.032;2022-07-10T05:42:51;2.97;;;1.90;;
18612;SDS011;9436;52.152;21.032;2022-07-10T05:45:18;3.73;;;2.07;;
18612;SDS011;9436;52.152;21.032;2022-07-10T05:47:45;1.90;;;1.70;;
18612;SDS011;9436;52.152;21.032;2022-07-10T05:50:12;2.43;;;1.80;;
18612;SDS011;9436;52.152;21.032;2022-07-10T05:52:40;2.73;;;1.80;;
18612;SDS011;9436;52.152;21.032;2022-07-10T05:55:08;3.47;;;2.00;;
18612;SDS011;9436;52.152;21.032;2022-07-10T05:57:35;3.77;;;2.00;;
18612;SDS011;9436;52.152;21.032;2022-07-10T06:00:02;2.57;;;1.93;;
18612;SDS011;9436;52.152;21.032;2022-07-10T06:02:30;3.93;;;1.93;;
18612;SDS011;9436;52.152;21.032;2022-07-10T06:04:57;2.70;;;1.87;;
18612;SDS011;9436;52.152;21.032;2022-07-10T06:07:24;3.30;;;2.00;;
18612;SDS011;9436;52.152;21.032;2022-07-10T06:09:53;2.97;;;1.93;;
18612;SDS011;9436;52.152;21.032;2022-07-10T06:12:20;2.70;;;1.97;;
18612;SDS011;9436;52.152;21.032;2022-07-10T06:14:47;3.87;;;2.10;;
18612;SDS011;9436;52.152;21.032;2022-07-10T06:17:14;2.70;;;1.90;;
18612;SDS011;9436;52.152;21.032;2022-07-10T06:19:41;3.47;;;2.13;;
18612;SDS011;9436;52.152;21.032;2022-07-10T06:22:08;3.27;;;2.13;;
18612;SDS011;9436;52.152;21.032;2022-07-10T06:24:54;3.70;;;2.20;;
18612;SDS011;9436;52.152;21.032;2022-07-10T06:27:21;3.70;;;2.20;;
18612;SDS011;9436;52.152;21.032;2022-07-10T06:29:48;2.70;;;2.50;;
18612;SDS011;9436;52.152;21.032;2022-07-10T06:32:15;3.73;;;2.80;;
18612;SDS011;9436;52.152;21.032;2022-07-10T06:34:42;4.60;;;2.80;;
18612;SDS011;9436;52.152;21.032;2022-07-10T06:37:09;3.90;;;3.00;;
18612;SDS011;9436;52.152;21.032;2022-07-10T06:39:36;4.47;;;3.03;;
18612;SDS011;9436;52.152;21.032;2022-07-10T06:42:05;3.70;;;3.23;;
18612;SDS011;9436;52.152;21.032;2022-07-10T06:44:33;3.40;;;3.10;;
18612;SDS011;9436;52.152;21.032;2022-07-10T06:47:00;4.23;;;3.00;;
18612;SDS011;9436;52.152;21.032;2022-07-10T06:49:45;5.33;;;3.43;;
18612;SDS011;9436;52.152;21.032;2022-07-10T06:52:13;3.73;;;3.30;;
18612;SDS011;9436;52.152;21.032;2022-07-10T06:54:40;3.87;;;2.73;;
18612;SDS011;9436;52.152;21.032;2022-07-10T06:57:09;3.87;;;3.10;;
18612;SDS011;9436;52.152;21.032;2022-07-10T06:59:37;4.43;;;2.60;;
18612;SDS011;9436;52.152;21.032;2022-07-10T07:02:04;3.70;;;2.60;;
18612;SDS011;9436;52.152;21.032;2022-07-10T07:04:31;3.67;;;2.63;;
18612;SDS011;9436;52.152;21.032;2022-07-10T07:06:58;3.83;;;2.30;;
18612;SDS011;9436;52.152;21.032;2022-07-10T07:09:25;3.73;;;2.40;;
18612;SDS011;9436;52.152;21.032;2022-07-10T07:11:52;4.27;;;2.17;;
18612;SDS011;9436;52.152;21.032;2022-07-10T07:14:21;2.67;;;1.90;;
18612;SDS011;9436;52.152;21.032;2022-07-10T07:16:48;5.33;;;2.00;;
18612;SDS011;9436;52.152;21.032;2022-07-10T07:19:24;3.47;;;1.90;;
18612;SDS011;9436;52.152;21.032;2022-07-10T07:21:57;6.10;;;1.97;;
18612;SDS011;9436;52.152;21.032;2022-07-10T07:24:42;3.80;;;1.83;;
18612;SDS011;9436;52.152;21.032;2022-07-10T07:27:09;2.70;;;1.93;;
18612;SDS011;9436;52.152;21.032;2022-07-10T07:29:37;4.20;;;1.87;;
18612;SDS011;9436;52.152;21.032;2022-07-10T07:32:04;2.10;;;1.70;;
18612;SDS011;9436;52.152;21.032;2022-07-10T07:34:32;4.00;;;1.40;;
18612;SDS011;9436;52.152;21.032;2022-07-10T07:36:59;2.07;;;1.70;;
18612;SDS011;9436;52.152;21.032;2022-07-10T07:39:26;2.37;;;1.60;;
18612;SDS011;9436;52.152;21.032;2022-07-10T07:41:53;2.30;;;1.70;;
18612;SDS011;9436;52.152;21.032;2022-07-10T07:44:21;3.67;;;2.20;;
18612;SDS011;9436;52.152;21.032;2022-07-10T07:46:49;2.60;;;1.37;;
18612;SDS011;9436;52.152;21.032;2022-07-10T07:49:16;4.07;;;1.80;;
18612;SDS011;9436;52.152;21.032;2022-07-10T07:51:43;3.47;;;1.47;;
18612;SDS011;9436;52.152;21.032;2022-07-10T07:54:10;2.67;;;1.60;;
18612;SDS011;9436;52.152;21.032;2022-07-10T07:56:37;3.67;;;1.43;;
18612;SDS011;9436;52.152;21.032;2022-07-10T07:59:04;2.47;;;1.50;;
18612;SDS011;9436;52.152;21.032;2022-07-10T08:01:31;3.27;;;1.43;;
18612;SDS011;9436;52.152;21.032;2022-07-10T08:03:59;3.70;;;1.70;;
18612;SDS011;9436;52.152;21.032;2022-07-10T08:06:26;3.07;;;1.53;;
18612;SDS011;9436;52.152;21.032;2022-07-10T08:08:53;2.33;;;1.57;;
18612;SDS011;9436;52.152;21.032;2022-07-10T08:11:20;3.43;;;1.70;;
18612;SDS011;9436;52.152;21.032;2022-07-10T08:13:47;4.23;;;1.60;;
18612;SDS011;9436;52.152;21.032;2022-07-10T08:16:14;4.27;;;1.60;;
18612;SDS011;9436;52.152;21.032;2022-07-10T08:18:41;3.73;;;1.53;;
18612;SDS011;9436;52.152;21.032;2022-07-10T08:21:10;2.90;;;1.30;;
18612;SDS011;9436;52.152;21.032;2022-07-10T08:23:37;3.60;;;1.43;;
18612;SDS011;9436;52.152;21.032;2022-07-10T08:26:04;4.60;;;1.43;;
18612;SDS011;9436;52.152;21.032;2022-07-10T08:28:31;4.50;;;1.50;;
18612;SDS011;9436;52.152;21.032;2022-07-10T08:30:58;4.13;;;1.47;;
18612;SDS011;9436;52.152;21.032;2022-07-10T08:33:26;2.30;;;1.40;;
18612;SDS011;9436;52.152;21.032;2022-07-10T08:35:53;3.47;;;1.33;;
18612;SDS011;9436;52.152;21.032;2022-07-10T08:38:25;2.53;;;1.50;;
18612;SDS011;9436;52.152;21.032;2022-07-10T08:40:53;4.20;;;1.30;;
18612;SDS011;9436;52.152;21.032;2022-07-10T08:43:22;2.87;;;1.40;;
18612;SDS011;9436;52.152;21.032;2022-07-10T08:45:49;2.93;;;1.50;;
18612;SDS011;9436;52.152;21.032;2022-07-10T08:48:19;1.83;;;1.30;;
18612;SDS011;9436;52.152;21.032;2022-07-10T08:50:51;2.17;;;1.43;;
18612;SDS011;9436;52.152;21.032;2022-07-10T08:53:22;2.23;;;1.03;;
18612;SDS011;9436;52.152;21.032;2022-07-10T08:55:55;2.93;;;1.23;;
18612;SDS011;9436;52.152;21.032;2022-07-10T08:58:22;1.73;;;1.40;;
18612;SDS011;9436;52.152;21.032;2022-07-10T09:00:49;3.10;;;1.40;;
18612;SDS011;9436;52.152;21.032;2022-07-10T09:03:16;2.67;;;1.47;;
18612;SDS011;9436;52.152;21.032;2022-07-10T09:05:43;4.20;;;1.30;;
18612;SDS011;9436;52.152;21.032;2022-07-10T09:08:24;3.53;;;1.30;;
18612;SDS011;9436;52.152;21.032;2022-07-10T09:10:53;4.93;;;1.30;;
18612;SDS011;9436;52.152;21.032;2022-07-10T09:13:48;4.17;;;1.40;;
18612;SDS011;9436;52.152;21.032;2022-07-10T09:16:20;2.47;;;1.30;;
18612;SDS011;9436;52.152;21.032;2022-07-10T09:18:48;3.77;;;1.60;;
18612;SDS011;9436;52.152;21.032;2022-07-10T09:21:15;3.67;;;1.43;;
18612;SDS011;9436;52.152;21.032;2022-07-10T09:23:43;2.87;;;1.63;;
18612;SDS011;9436;52.152;21.032;2022-07-10T09:26:10;2.93;;;1.50;;
18612;SDS011;9436;52.152;21.032;2022-07-10T09:28:38;1.70;;;1.60;;
18612;SDS011;9436;52.152;21.032;2022-07-10T09:31:05;3.70;;;1.60;;
18612;SDS011;9436;52.152;21.032;2022-07-10T09:33:32;3.83;;;1.40;;
18612;SDS011;9436;52.152;21.032;2022-07-10T09:36:02;3.37;;;1.50;;
18612;SDS011;9436;52.152;21.032;2022-07-10T09:38:51;3.30;;;1.70;;
18612;SDS011;9436;52.152;21.032;2022-07-10T09:41:26;5.10;;;1.77;;
18612;SDS011;9436;52.152;21.032;2022-07-10T09:43:55;2.47;;;1.30;;
18612;SDS011;9436;52.152;21.032;2022-07-10T09:46:24;3.53;;;1.30;;
18612;SDS011;9436;52.152;21.032;2022-07-10T09:49:02;2.33;;;1.20;;
18612;SDS011;9436;52.152;21.032;2022-07-10T09:51:34;3.53;;;1.50;;
18612;SDS011;9436;52.152;21.032;2022-07-10T09:54:05;3.17;;;1.30;;
18612;SDS011;9436;52.152;21.032;2022-07-10T09:56:35;2.87;;;1.40;;
18612;SDS011;9436;52.152;21.032;2022-07-10T09:59:08;2.30;;;1.10;;
18612;SDS011;9436;52.152;21.032;2022-07-10T10:01:37;3.13;;;1.10;;
18612;SDS011;9436;52.152;21.032;2022-07-10T10:04:10;1.37;;;1.20;;
18612;SDS011;9436;52.152;21.032;2022-07-10T10:06:38;2.83;;;1.50;;
18612;SDS011;9436;52.152;21.032;2022-07-10T10:09:10;2.33;;;1.10;;
18612;SDS011;9436;52.152;21.032;2022-07-10T10:11:43;4.17;;;1.37;;
18612;SDS011;9436;52.152;21.032;2022-07-10T10:14:10;2.30;;;1.10;;
18612;SDS011;9436;52.152;21.032;2022-07-10T10:16:39;2.93;;;1.10;;
18612;SDS011;9436;52.152;21.032;2022-07-10T10:19:09;1.60;;;0.80;;
18612;SDS011;9436;52.152;21.032;2022-07-10T10:21:55;2.63;;;1.07;;
18612;SDS011;9436;52.152;21.032;2022-07-10T10:24:25;2.83;;;1.30;;
18612;SDS011;9436;52.152;21.032;2022-07-10T10:26:53;1.50;;;1.10;;
18612;SDS011;9436;52.152;21.032;2022-07-10T10:29:20;2.00;;;0.80;;
18612;SDS011;9436;52.152;21.032;2022-07-10T10:31:47;1.20;;;0.80;;
18612;SDS011;9436;52.152;21.032;2022-07-10T10:34:16;2.33;;;1.00;;
18612;SDS011;9436;52.152;21.032;2022-07-10T10:40:04;0.97;;;0.87;;
18612;SDS011;9436;52.152;21.032;2022-07-10T10:42:32;1.80;;;0.93;;
18612;SDS011;9436;52.152;21.032;2022-07-10T10:47:59;1.63;;;0.73;;
18612;SDS011;9436;52.152;21.032;2022-07-10T10:50:36;2.20;;;0.73;;
18612;SDS011;9436;52.152;21.032;2022-07-10T10:53:05;1.07;;;0.70;;
18612;SDS011;9436;52.152;21.032;2022-07-10T10:55:40;1.63;;;0.67;;
18612;SDS011;9436;52.152;21.032;2022-07-10T10:58:29;1.10;;;0.80;;
18612;SDS011;9436;52.152;21.032;2022-07-10T11:01:03;1.23;;;0.80;;
18612;SDS011;9436;52.152;21.032;2022-07-10T11:03:31;1.67;;;0.70;;
18612;SDS011;9436;52.152;21.032;2022-07-10T11:05:58;1.17;;;1.00;;
18612;SDS011;9436;52.152;21.032;2022-07-10T11:08:37;1.37;;;1.00;;
18612;SDS011;9436;52.152;21.032;2022-07-10T11:14:08;1.83;;;1.20;;
18612;SDS011;9436;52.152;21.032;2022-07-10T11:16:37;2.37;;;1.00;;
18612;SDS011;9436;52.152;21.032;2022-07-10T11:19:13;2.97;;;1.20;;
18612;SDS011;9436;52.152;21.032;2022-07-10T11:21:45;2.37;;;1.20;;
18612;SDS011;9436;52.152;21.032;2022-07-10T11:24:18;2.97;;;1.40;;
18612;SDS011;9436;52.152;21.032;2022-07-10T11:27:06;2.03;;;1.30;;
18612;SDS011;9436;52.152;21.032;2022-07-10T11:29:55;2.40;;;1.20;;
18612;SDS011;9436;52.152;21.032;2022-07-10T11:32:23;3.03;;;1.07;;
18612;SDS011;9436;52.152;21.032;2022-07-10T11:34:50;1.70;;;1.10;;
18612;SDS011;9436;52.152;21.032;2022-07-10T11:37:17;1.80;;;1.10;;
18612;SDS011;9436;52.152;21.032;2022-07-10T11:39:45;1.43;;;1.10;;
18612;SDS011;9436;52.152;21.032;2022-07-10T11:42:13;2.27;;;1.30;;
18612;SDS011;9436;52.152;21.032;2022-07-10T11:44:40;1.63;;;0.90;;
18612;SDS011;9436;52.152;21.032;2022-07-10T11:47:08;4.10;;;1.40;;
18612;SDS011;9436;52.152;21.032;2022-07-10T11:49:41;3.53;;;1.20;;
18612;SDS011;9436;52.152;21.032;2022-07-10T11:52:12;3.80;;;1.40;;
18612;SDS011;9436;52.152;21.032;2022-07-10T11:54:39;2.73;;;1.20;;
18612;SDS011;9436;52.152;21.032;2022-07-10T11:57:07;2.67;;;1.50;;
18612;SDS011;9436;52.152;21.032;2022-07-10T11:59:36;3.20;;;1.23;;
18612;SDS011;9436;52.152;21.032;2022-07-10T12:02:04;4.03;;;1.50;;
18612;SDS011;9436;52.152;21.032;2022-07-10T12:04:32;2.33;;;1.30;;
18612;SDS011;9436;52.152;21.032;2022-07-10T12:06:59;2.50;;;1.10;;
18612;SDS011;9436;52.152;21.032;2022-07-10T12:09:26;1.80;;;1.00;;
18612;SDS011;9436;52.152;21.032;2022-07-10T12:11:59;2.30;;;1.17;;
18612;SDS011;9436;52.152;21.032;2022-07-10T12:14:26;1.13;;;0.80;;
18612;SDS011;9436;52.152;21.032;2022-07-10T12:16:56;1.97;;;0.80;;
18612;SDS011;9436;52.152;21.032;2022-07-10T12:19:24;2.83;;;0.80;;
18612;SDS011;9436;52.152;21.032;2022-07-10T12:21:52;1.53;;;0.70;;
18612;SDS011;9436;52.152;21.032;2022-07-10T12:24:20;0.53;;;0.53;;
18612;SDS011;9436;52.152;21.032;2022-07-10T12:26:49;1.57;;;0.80;;
18612;SDS011;9436;52.152;21.032;2022-07-10T12:29:20;2.20;;;1.00;;
18612;SDS011;9436;52.152;21.032;2022-07-10T12:31:50;2.40;;;0.80;;
18612;SDS011;9436;52.152;21.032;2022-07-10T12:34:32;2.70;;;0.80;;
18612;SDS011;9436;52.152;21.032;2022-07-10T12:37:05;1.73;;;0.90;;
18612;SDS011;9436;52.152;21.032;2022-07-10T12:39:35;1.73;;;0.90;;
18612;SDS011;9436;52.152;21.032;2022-07-10T12:42:04;2.03;;;0.87;;
18612;SDS011;9436;52.152;21.032;2022-07-10T12:44:36;3.50;;;1.10;;
18612;SDS011;9436;52.152;21.032;2022-07-10T12:47:05;1.23;;;0.83;;
18612;SDS011;9436;52.152;21.032;2022-07-10T12:49:54;2.03;;;0.90;;
18612;SDS011;9436;52.152;21.032;2022-07-10T12:52:24;1.60;;;0.73;;
18612;SDS011;9436;52.152;21.032;2022-07-10T12:55:04;2.77;;;1.20;;
18612;SDS011;9436;52.152;21.032;2022-07-10T12:57:44;3.67;;;1.10;;
18612;SDS011;9436;52.152;21.032;2022-07-10T13:00:15;1.17;;;1.00;;
18612;SDS011;9436;52.152;21.032;2022-07-10T13:02:45;2.17;;;0.90;;
18612;SDS011;9436;52.152;21.032;2022-07-10T13:05:25;1.77;;;0.70;;
18612;SDS011;9436;52.152;21.032;2022-07-10T13:08:03;2.30;;;0.90;;
18612;SDS011;9436;52.152;21.032;2022-07-10T13:10:32;1.70;;;1.00;;
18612;SDS011;9436;52.152;21.032;2022-07-10T13:12:59;3.37;;;0.90;;
18612;SDS011;9436;52.152;21.032;2022-07-10T13:15:26;2.17;;;0.83;;
18612;SDS011;9436;52.152;21.032;2022-07-10T13:17:54;1.23;;;0.80;;
18612;SDS011;9436;52.152;21.032;2022-07-10T13:20:21;2.00;;;0.83;;
18612;SDS011;9436;52.152;21.032;2022-07-10T13:22:50;1.83;;;1.10;;
18612;SDS011;9436;52.152;21.032;2022-07-10T13:25:17;0.90;;;0.70;;
18612;SDS011;9436;52.152;21.032;2022-07-10T13:27:44;1.13;;;0.70;;
18612;SDS011;9436;52.152;21.032;2022-07-10T13:30:11;1.63;;;0.77;;
18612;SDS011;9436;52.152;21.032;2022-07-10T13:32:38;1.67;;;1.13;;
18612;SDS011;9436;52.152;21.032;2022-07-10T13:35:06;1.50;;;0.90;;
18612;SDS011;9436;52.152;21.032;2022-07-10T13:37:34;2.90;;;1.13;;
18612;SDS011;9436;52.152;21.032;2022-07-10T13:40:02;1.97;;;1.13;;
18612;SDS011;9436;52.152;21.032;2022-07-10T13:42:30;2.00;;;1.10;;
18612;SDS011;9436;52.152;21.032;2022-07-10T13:44:57;2.50;;;1.30;;
18612;SDS011;9436;52.152;21.032;2022-07-10T13:47:24;2.40;;;1.00;;
18612;SDS011;9436;52.152;21.032;2022-07-10T13:49:51;1.97;;;1.20;;
18612;SDS011;9436;52.152;21.032;2022-07-10T13:52:18;2.27;;;1.10;;
18612;SDS011;9436;52.152;21.032;2022-07-10T13:54:45;2.47;;;1.53;;
18612;SDS011;9436;52.152;21.032;2022-07-10T13:57:14;2.97;;;1.40;;
18612;SDS011;9436;52.152;21.032;2022-07-10T13:59:41;3.57;;;1.57;;
18612;SDS011;9436;52.152;21.032;2022-07-10T14:02:08;2.17;;;1.43;;
18612;SDS011;9436;52.152;21.032;2022-07-10T14:04:35;2.70;;;1.63;;
18612;SDS011;9436;52.152;21.032;2022-07-10T14:07:02;2.07;;;1.87;;
18612;SDS011;9436;52.152;21.032;2022-07-10T14:09:29;3.70;;;2.03;;
18612;SDS011;9436;52.152;21.032;2022-07-10T14:11:56;3.07;;;1.80;;
18612;SDS011;9436;52.152;21.032;2022-07-10T14:14:25;1.40;;;1.30;;
18612;SDS011;9436;52.152;21.032;2022-07-10T14:16:52;3.47;;;1.60;;
18612;SDS011;9436;52.152;21.032;2022-07-10T14:19:19;1.47;;;1.37;;
18612;SDS011;9436;52.152;21.032;2022-07-10T14:21:45;2.30;;;1.47;;
18612;SDS011;9436;52.152;21.032;2022-07-10T14:24:12;2.23;;;1.40;;
18612;SDS011;9436;52.152;21.032;2022-07-10T14:26:39;1.97;;;1.50;;
18612;SDS011;9436;52.152;21.032;2022-07-10T14:29:06;1.47;;;1.37;;
18612;SDS011;9436;52.152;21.032;2022-07-10T14:31:35;1.63;;;1.43;;
18612;SDS011;9436;52.152;21.032;2022-07-10T14:34:02;1.53;;;1.43;;
18612;SDS011;9436;52.152;21.032;2022-07-10T14:36:29;2.07;;;1.20;;
18612;SDS011;9436;52.152;21.032;2022-07-10T14:38:57;3.23;;;1.40;;
18612;SDS011;9436;52.152;21.032;2022-07-10T14:41:24;1.50;;;1.20;;
18612;SDS011;9436;52.152;21.032;2022-07-10T14:43:51;1.70;;;1.00;;
18612;SDS011;9436;52.152;21.032;2022-07-10T14:46:18;2.33;;;0.90;;
18612;SDS011;9436;52.152;21.032;2022-07-10T14:48:46;1.27;;;1.00;;
18612;SDS011;9436;52.152;21.032;2022-07-10T14:51:13;3.03;;;1.07;;
18612;SDS011;9436;52.152;21.032;2022-07-10T14:53:40;1.60;;;1.00;;
18612;SDS011;9436;52.152;21.032;2022-07-10T14:56:10;2.17;;;1.00;;
18612;SDS011;9436;52.152;21.032;2022-07-10T14:58:37;2.13;;;1.20;;
18612;SDS011;9436;52.152;21.032;2022-07-10T15:01:04;1.80;;;0.90;;
18612;SDS011;9436;52.152;21.032;2022-07-10T15:03:31;1.20;;;0.80;;
18612;SDS011;9436;52.152;21.032;2022-07-10T15:06:00;3.43;;;0.93;;